sensor_id;sensor_type;location;lat;lon;timestamp;pressure;altitude;pressure_sealevel;temperature;humidity
68226;BME280;55045;49.410;11.030;2022-09-13T00:01:39;97875.84;;;12.28;100.00
68226;BME280;55045;49.410;11.030;2022-09-13T00:04:42;97870.75;;;12.40;100.00
68226;BME280;55045;49.410;11.030;2022-09-13T00:07:47;97832.44;;;12.00;100.00
68226;BME280;55045;49.410;11.030;2022-09-13T00:10:51;97879.63;;;12.08;100.00
68226;BME280;55045;49.410;11.030;2022-09-13T00:13:55;97875.88;;;11.98;100.00
68226;BME280;55045;49.410;11.030;2022-09-13T00:16:58;97872.56;;;12.10;100.00
68226;BME280;55045;49.410;11.030;2022-09-13T00:20:02;97858.59;;;11.97;100.00
68226;BME280;55045;49.410;11.030;2022-09-13T00:23:07;97858.97;;;12.05;100.00
68226;BME280;55045;49.410;11.030;2022-09-13T00:26:11;97848.91;;;11.85;100.00
68226;BME280;55045;49.410;11.030;2022-09-13T00:29:15;97864.75;;;11.80;100.00
68226;BME280;55045;49.410;11.030;2022-09-13T00:32:18;97860.94;;;12.16;100.00
68226;BME280;55045;49.410;11.030;2022-09-13T00:35:22;97858.84;;;11.92;100.00
68226;BME280;55045;49.410;11.030;2022-09-13T00:38:26;97855.28;;;12.09;100.00
68226;BME280;55045;49.410;11.030;2022-09-13T00:41:30;97828.91;;;12.15;100.00
68226;BME280;55045;49.410;11.030;2022-09-13T00:44:52;97856.31;;;12.06;100.00
68226;BME280;55045;49.410;11.030;2022-09-13T00:47:58;97836.25;;;12.08;100.00
68226;BME280;55045;49.410;11.030;2022-09-13T00:51:05;97837.22;;;11.92;100.00
68226;BME280;55045;49.410;11.030;2022-09-13T00:54:11;97838.78;;;11.80;100.00
68226;BME280;55045;49.410;11.030;2022-09-13T00:57:17;97832.06;;;11.76;100.00
68226;BME280;55045;49.410;11.030;2022-09-13T01:00:21;97832.50;;;11.68;100.00
68226;BME280;55045;49.410;11.030;2022-09-13T01:03:27;97828.25;;;11.97;100.00
68226;BME280;55045;49.410;11.030;2022-09-13T01:06:33;97835.59;;;12.05;100.00
68226;BME280;55045;49.410;11.030;2022-09-13T01:09:43;97825.75;;;11.96;100.00
68226;BME280;55045;49.410;11.030;2022-09-13T01:12:51;97825.63;;;11.67;100.00
68226;BME280;55045;49.410;11.030;2022-09-13T01:15:57;97823.75;;;11.55;100.00
68226;BME280;55045;49.410;11.030;2022-09-13T01:19:00;97829.59;;;11.59;100.00
68226;BME280;55045;49.410;11.030;2022-09-13T01:22:27;97807.75;;;11.31;100.00
68226;BME280;55045;49.410;11.030;2022-09-13T01:25:53;97827.69;;;11.31;100.00
68226;BME280;55045;49.410;11.030;2022-09-13T01:29:34;97828.81;;;11.27;100.00
68226;BME280;55045;49.410;11.030;2022-09-13T01:33:00;97801.53;;;11.04;100.00
68226;BME280;55045;49.410;11.030;2022-09-13T01:36:37;97833.50;;;11.04;100.00
68226;BME280;55045;49.410;11.030;2022-09-13T01:39:48;97838.25;;;10.96;100.00
68226;BME280;55045;49.410;11.030;2022-09-13T01:43:06;97833.16;;;10.94;100.00
68226;BME280;55045;49.410;11.030;2022-09-13T01:46:17;97831.72;;;10.89;100.00
68226;BME280;55045;49.410;11.030;2022-09-13T01:49:29;97835.81;;;10.93;100.00
68226;BME280;55045;49.410;11.030;2022-09-13T01:52:41;97829.13;;;10.89;100.00
68226;BME280;55045;49.410;11.030;2022-09-13T01:55:50;97828.88;;;10.78;100.00
68226;BME280;55045;49.410;11.030;2022-09-13T01:59:00;97839.19;;;10.95;100.00
68226;BME280;55045;49.410;11.030;2022-09-13T02:02:11;97834.91;;;10.78;100.00
68226;BME280;55045;49.410;11.030;2022-09-13T02:05:23;97834.81;;;10.80;100.00
68226;BME280;55045;49.410;11.030;2022-09-13T02:08:34;97845.19;;;10.64;100.00
68226;BME280;55045;49.410;11.030;2022-09-13T02:11:41;97841.41;;;10.70;100.00
68226;BME280;55045;49.410;11.030;2022-09-13T02:14:53;97830.38;;;10.98;100.00
68226;BME280;55045;49.410;11.030;2022-09-13T02:18:02;97818.56;;;11.23;100.00
68226;BME280;55045;49.410;11.030;2022-09-13T02:21:12;97810.81;;;10.76;100.00
68226;BME280;55045;49.410;11.030;2022-09-13T02:24:22;97798.34;;;10.99;100.00
68226;BME280;55045;49.410;11.030;2022-09-13T02:27:31;97789.34;;;10.73;100.00
68226;BME280;55045;49.410;11.030;2022-09-13T02:30:38;97800.25;;;10.79;100.00
68226;BME280;55045;49.410;11.030;2022-09-13T02:33:44;97812.47;;;10.77;100.00
68226;BME280;55045;49.410;11.030;2022-09-13T02:36:54;97807.84;;;10.66;100.00
68226;BME280;55045;49.410;11.030;2022-09-13T02:40:01;97799.16;;;10.99;100.00
68226;BME280;55045;49.410;11.030;2022-09-13T02:43:09;97795.16;;;10.78;100.00
68226;BME280;55045;49.410;11.030;2022-09-13T02:46:20;97770.94;;;10.46;100.00
68226;BME280;55045;49.410;11.030;2022-09-13T02:49:29;97766.34;;;10.98;100.00
68226;BME280;55045;49.410;11.030;2022-09-13T02:52:44;97786.38;;;10.96;100.00
68226;BME280;55045;49.410;11.030;2022-09-13T02:55:54;97792.22;;;10.68;100.00
68226;BME280;55045;49.410;11.030;2022-09-13T02:59:03;97779.25;;;10.68;100.00
68226;BME280;55045;49.410;11.030;2022-09-13T03:02:10;97780.91;;;10.69;100.00
68226;BME280;55045;49.410;11.030;2022-09-13T03:05:15;97785.50;;;10.48;100.00
68226;BME280;55045;49.410;11.030;2022-09-13T03:08:21;97778.75;;;10.77;100.00
68226;BME280;55045;49.410;11.030;2022-09-13T03:11:38;97791.78;;;10.44;100.00
68226;BME280;55045;49.410;11.030;2022-09-13T03:14:48;97791.44;;;10.50;100.00
68226;BME280;55045;49.410;11.030;2022-09-13T03:18:04;97779.41;;;10.81;100.00
68226;BME280;55045;49.410;11.030;2022-09-13T03:21:21;97780.31;;;10.48;100.00
68226;BME280;55045;49.410;11.030;2022-09-13T03:24:37;97766.03;;;10.57;100.00
68226;BME280;55045;49.410;11.030;2022-09-13T03:27:51;97772.69;;;10.61;100.00
68226;BME280;55045;49.410;11.030;2022-09-13T03:34:16;97781.75;;;10.54;100.00
68226;BME280;55045;49.410;11.030;2022-09-13T03:37:26;97771.50;;;10.35;100.00
68226;BME280;55045;49.410;11.030;2022-09-13T03:40:40;97711.38;;;10.11;100.00
68226;BME280;55045;49.410;11.030;2022-09-13T03:43:47;97773.13;;;10.53;100.00
68226;BME280;55045;49.410;11.030;2022-09-13T03:46:56;97762.59;;;11.04;100.00
68226;BME280;55045;49.410;11.030;2022-09-13T03:50:03;97759.16;;;10.72;100.00
68226;BME280;55045;49.410;11.030;2022-09-13T03:53:10;97767.81;;;10.39;100.00
68226;BME280;55045;49.410;11.030;2022-09-13T03:56:18;97754.94;;;10.22;100.00
68226;BME280;55045;49.410;11.030;2022-09-13T03:59:22;97784.91;;;10.43;100.00
68226;BME280;55045;49.410;11.030;2022-09-13T04:02:25;97776.63;;;10.36;100.00
68226;BME280;55045;49.410;11.030;2022-09-13T04:05:30;97741.56;;;10.29;100.00
68226;BME280;55045;49.410;11.030;2022-09-13T04:08:34;97769.28;;;10.60;100.00
68226;BME280;55045;49.410;11.030;2022-09-13T04:11:37;97764.97;;;10.28;100.00
68226;BME280;55045;49.410;11.030;2022-09-13T04:14:42;97762.81;;;10.19;100.00
68226;BME280;55045;49.410;11.030;2022-09-13T04:17:46;97761.25;;;10.49;100.00
68226;BME280;55045;49.410;11.030;2022-09-13T04:20:54;97767.81;;;10.23;100.00
68226;BME280;55045;49.410;11.030;2022-09-13T04:23:57;97762.78;;;10.85;100.00
68226;BME280;55045;49.410;11.030;2022-09-13T04:27:01;97742.00;;;10.20;100.00
68226;BME280;55045;49.410;11.030;2022-09-13T04:30:06;97773.84;;;10.39;100.00
68226;BME280;55045;49.410;11.030;2022-09-13T04:33:10;97784.19;;;10.06;100.00
68226;BME280;55045;49.410;11.030;2022-09-13T04:36:14;97790.59;;;10.17;100.00
68226;BME280;55045;49.410;11.030;2022-09-13T04:39:18;97773.19;;;10.36;100.00
68226;BME280;55045;49.410;11.030;2022-09-13T04:42:22;97764.31;;;10.40;100.00
68226;BME280;55045;49.410;11.030;2022-09-13T04:45:25;97768.94;;;10.18;100.00
68226;BME280;55045;49.410;11.030;2022-09-13T04:48:28;97784.47;;;10.18;100.00
68226;BME280;55045;49.410;11.030;2022-09-13T04:51:33;97793.16;;;10.17;100.00
68226;BME280;55045;49.410;11.030;2022-09-13T04:54:36;97783.75;;;9.98;100.00
68226;BME280;55045;49.410;11.030;2022-09-13T04:57:39;97802.25;;;10.08;100.00
68226;BME280;55045;49.410;11.030;2022-09-13T05:00:42;97808.91;;;9.96;100.00
68226;BME280;55045;49.410;11.030;2022-09-13T05:03:46;97798.25;;;9.85;100.00
68226;BME280;55045;49.410;11.030;2022-09-13T05:06:50;97799.13;;;10.52;100.00
68226;BME280;55045;49.410;11.030;2022-09-13T05:09:54;97792.19;;;10.52;100.00
68226;BME280;55045;49.410;11.030;2022-09-13T05:12:57;97784.69;;;10.30;100.00
68226;BME280;55045;49.410;11.030;2022-09-13T05:16:04;97768.09;;;10.34;100.00
68226;BME280;55045;49.410;11.030;2022-09-13T05:19:09;97787.53;;;10.08;100.00
68226;BME280;55045;49.410;11.030;2022-09-13T05:22:14;97797.75;;;10.29;100.00
68226;BME280;55045;49.410;11.030;2022-09-13T05:25:18;97775.28;;;10.45;100.00
68226;BME280;55045;49.410;11.030;2022-09-13T05:28:27;97788.53;;;10.72;100.00
68226;BME280;55045;49.410;11.030;2022-09-13T05:31:32;97778.00;;;10.75;100.00
68226;BME280;55045;49.410;11.030;2022-09-13T05:34:36;97778.41;;;10.67;100.00
68226;BME280;55045;49.410;11.030;2022-09-13T05:37:41;97776.59;;;10.85;100.00
68226;BME280;55045;49.410;11.030;2022-09-13T05:40:46;97767.69;;;10.89;100.00
68226;BME280;55045;49.410;11.030;2022-09-13T05:43:50;97769.84;;;11.13;100.00
68226;BME280;55045;49.410;11.030;2022-09-13T05:46:58;97766.16;;;11.17;100.00
68226;BME280;55045;49.410;11.030;2022-09-13T05:50:02;97723.22;;;11.11;100.00
68226;BME280;55045;49.410;11.030;2022-09-13T05:53:26;97761.09;;;11.45;100.00
68226;BME280;55045;49.410;11.030;2022-09-13T05:56:30;97759.31;;;11.76;100.00
68226;BME280;55045;49.410;11.030;2022-09-13T05:59:33;97762.16;;;11.71;100.00
68226;BME280;55045;49.410;11.030;2022-09-13T06:02:37;97760.09;;;11.92;100.00
68226;BME280;55045;49.410;11.030;2022-09-13T06:05:40;97763.91;;;11.87;100.00
68226;BME280;55045;49.410;11.030;2022-09-13T06:08:45;97769.84;;;11.89;100.00
68226;BME280;55045;49.410;11.030;2022-09-13T06:11:49;97775.97;;;11.88;100.00
68226;BME280;55045;49.410;11.030;2022-09-13T06:14:52;97780.88;;;11.92;100.00
68226;BME280;55045;49.410;11.030;2022-09-13T06:17:56;97783.31;;;11.95;100.00
68226;BME280;55045;49.410;11.030;2022-09-13T06:21:35;97785.91;;;11.95;100.00
68226;BME280;55045;49.410;11.030;2022-09-13T06:25:22;97778.56;;;11.88;100.00
68226;BME280;55045;49.410;11.030;2022-09-13T06:29:01;97794.63;;;11.94;100.00
68226;BME280;55045;49.410;11.030;2022-09-13T06:32:05;97803.75;;;12.16;100.00
68226;BME280;55045;49.410;11.030;2022-09-13T06:35:08;97790.97;;;12.27;100.00
68226;BME280;55045;49.410;11.030;2022-09-13T06:38:12;97795.88;;;12.17;100.00
68226;BME280;55045;49.410;11.030;2022-09-13T06:41:21;97770.97;;;12.13;100.00
68226;BME280;55045;49.410;11.030;2022-09-13T06:44:24;97787.88;;;12.34;100.00
68226;BME280;55045;49.410;11.030;2022-09-13T06:47:27;97787.16;;;12.47;100.00
68226;BME280;55045;49.410;11.030;2022-09-13T06:50:31;97784.88;;;12.83;100.00
68226;BME280;55045;49.410;11.030;2022-09-13T06:53:35;97773.38;;;12.87;100.00
68226;BME280;55045;49.410;11.030;2022-09-13T06:56:39;97768.53;;;12.81;100.00
68226;BME280;55045;49.410;11.030;2022-09-13T06:59:44;97784.19;;;12.94;100.00
68226;BME280;55045;49.410;11.030;2022-09-13T07:02:50;97778.63;;;13.00;100.00
68226;BME280;55045;49.410;11.030;2022-09-13T07:05:53;97774.69;;;13.21;100.00
68226;BME280;55045;49.410;11.030;2022-09-13T07:08:58;97774.00;;;13.18;100.00
68226;BME280;55045;49.410;11.030;2022-09-13T07:12:04;97734.94;;;13.18;100.00
68226;BME280;55045;49.410;11.030;2022-09-13T07:15:08;97747.38;;;13.27;100.00
68226;BME280;55045;49.410;11.030;2022-09-13T07:18:11;97757.22;;;13.36;100.00
68226;BME280;55045;49.410;11.030;2022-09-13T07:21:14;97761.84;;;13.58;100.00
68226;BME280;55045;49.410;11.030;2022-09-13T07:24:19;97750.94;;;13.66;100.00
68226;BME280;55045;49.410;11.030;2022-09-13T07:27:24;97749.91;;;13.81;100.00
68226;BME280;55045;49.410;11.030;2022-09-13T07:30:27;97755.03;;;13.95;100.00
68226;BME280;55045;49.410;11.030;2022-09-13T07:33:30;97752.72;;;14.16;100.00
68226;BME280;55045;49.410;11.030;2022-09-13T07:36:35;97744.69;;;14.32;100.00
68226;BME280;55045;49.410;11.030;2022-09-13T07:39:38;97760.44;;;14.18;100.00
68226;BME280;55045;49.410;11.030;2022-09-13T07:42:42;97752.81;;;14.27;100.00
68226;BME280;55045;49.410;11.030;2022-09-13T07:45:46;97745.22;;;14.24;100.00
68226;BME280;55045;49.410;11.030;2022-09-13T07:48:51;97752.53;;;14.45;100.00
68226;BME280;55045;49.410;11.030;2022-09-13T07:51:55;97755.25;;;14.30;100.00
68226;BME280;55045;49.410;11.030;2022-09-13T07:54:58;97754.63;;;14.52;100.00
68226;BME280;55045;49.410;11.030;2022-09-13T07:58:02;97758.44;;;14.59;100.00
68226;BME280;55045;49.410;11.030;2022-09-13T08:01:07;97735.78;;;14.73;100.00
68226;BME280;55045;49.410;11.030;2022-09-13T08:04:13;97732.22;;;14.74;100.00
68226;BME280;55045;49.410;11.030;2022-09-13T08:07:18;97743.63;;;14.96;100.00
68226;BME280;55045;49.410;11.030;2022-09-13T08:10:24;97747.78;;;14.99;100.00
68226;BME280;55045;49.410;11.030;2022-09-13T08:13:28;97752.13;;;15.11;100.00
68226;BME280;55045;49.410;11.030;2022-09-13T08:16:34;97736.25;;;15.14;100.00
68226;BME280;55045;49.410;11.030;2022-09-13T08:19:37;97737.53;;;15.33;100.00
68226;BME280;55045;49.410;11.030;2022-09-13T08:22:41;97748.22;;;15.41;100.00
68226;BME280;55045;49.410;11.030;2022-09-13T08:25:44;97747.69;;;15.24;100.00
68226;BME280;55045;49.410;11.030;2022-09-13T08:28:59;97749.00;;;15.54;100.00
68226;BME280;55045;49.410;11.030;2022-09-13T08:32:31;97737.59;;;15.31;100.00
68226;BME280;55045;49.410;11.030;2022-09-13T08:35:50;97742.41;;;15.72;100.00
68226;BME280;55045;49.410;11.030;2022-09-13T08:38:54;97750.28;;;15.83;100.00
68226;BME280;55045;49.410;11.030;2022-09-13T08:42:20;97735.81;;;15.91;100.00
68226;BME280;55045;49.410;11.030;2022-09-13T08:45:27;97748.56;;;16.18;100.00
68226;BME280;55045;49.410;11.030;2022-09-13T08:48:33;97743.59;;;16.26;100.00
68226;BME280;55045;49.410;11.030;2022-09-13T08:51:41;97713.47;;;15.98;100.00
68226;BME280;55045;49.410;11.030;2022-09-13T08:54:57;97720.50;;;16.42;100.00
68226;BME280;55045;49.410;11.030;2022-09-13T08:58:26;97725.34;;;16.91;100.00
68226;BME280;55045;49.410;11.030;2022-09-13T09:01:53;97703.78;;;16.99;100.00
68226;BME280;55045;49.410;11.030;2022-09-13T09:05:15;97724.03;;;16.63;100.00
68226;BME280;55045;49.410;11.030;2022-09-13T09:08:28;97714.91;;;17.12;100.00
68226;BME280;55045;49.410;11.030;2022-09-13T09:11:40;97690.25;;;16.72;100.00
68226;BME280;55045;49.410;11.030;2022-09-13T09:14:55;97706.34;;;17.10;100.00
68226;BME280;55045;49.410;11.030;2022-09-13T09:18:05;97669.13;;;16.95;100.00
68226;BME280;55045;49.410;11.030;2022-09-13T09:21:15;97670.63;;;16.66;100.00
68226;BME280;55045;49.410;11.030;2022-09-13T09:24:22;97737.97;;;16.97;100.00
68226;BME280;55045;49.410;11.030;2022-09-13T09:27:31;97737.09;;;17.40;100.00
68226;BME280;55045;49.410;11.030;2022-09-13T09:34:21;97736.97;;;17.10;100.00
68226;BME280;55045;49.410;11.030;2022-09-13T09:37:29;97746.69;;;17.19;100.00
68226;BME280;55045;49.410;11.030;2022-09-13T09:40:34;97705.69;;;16.97;100.00
68226;BME280;55045;49.410;11.030;2022-09-13T09:43:43;97736.97;;;17.10;100.00
68226;BME280;55045;49.410;11.030;2022-09-13T09:46:50;97735.66;;;17.36;100.00
68226;BME280;55045;49.410;11.030;2022-09-13T09:50:02;97727.53;;;17.18;100.00
68226;BME280;55045;49.410;11.030;2022-09-13T09:53:14;97744.09;;;17.19;100.00
68226;BME280;55045;49.410;11.030;2022-09-13T09:56:22;97727.97;;;17.23;100.00
68226;BME280;55045;49.410;11.030;2022-09-13T09:59:27;97723.66;;;17.34;100.00
68226;BME280;55045;49.410;11.030;2022-09-13T10:02:33;97696.78;;;17.20;100.00
68226;BME280;55045;49.410;11.030;2022-09-13T10:05:40;97716.41;;;17.26;100.00
68226;BME280;55045;49.410;11.030;2022-09-13T10:08:47;97677.84;;;17.70;100.00
68226;BME280;55045;49.410;11.030;2022-09-13T10:11:57;97683.94;;;17.70;100.00
68226;BME280;55045;49.410;11.030;2022-09-13T10:15:12;97679.75;;;17.68;100.00
68226;BME280;55045;49.410;11.030;2022-09-13T10:18:17;97669.66;;;17.84;100.00
68226;BME280;55045;49.410;11.030;2022-09-13T10:21:42;97665.75;;;17.78;100.00
68226;BME280;55045;49.410;11.030;2022-09-13T10:24:45;97655.19;;;17.69;100.00
68226;BME280;55045;49.410;11.030;2022-09-13T10:27:51;97656.22;;;18.08;100.00
68226;BME280;55045;49.410;11.030;2022-09-13T10:30:57;97646.00;;;18.05;100.00
68226;BME280;55045;49.410;11.030;2022-09-13T10:34:03;97665.72;;;17.99;100.00
68226;BME280;55045;49.410;11.030;2022-09-13T10:37:14;97640.44;;;18.38;100.00
68226;BME280;55045;49.410;11.030;2022-09-13T10:40:28;97639.28;;;18.22;100.00
68226;BME280;55045;49.410;11.030;2022-09-13T10:43:32;97633.91;;;18.23;100.00
68226;BME280;55045;49.410;11.030;2022-09-13T10:46:37;97636.19;;;18.07;100.00
68226;BME280;55045;49.410;11.030;2022-09-13T10:49:46;97622.56;;;18.23;100.00
68226;BME280;55045;49.410;11.030;2022-09-13T10:52:52;97652.72;;;18.38;100.00
68226;BME280;55045;49.410;11.030;2022-09-13T10:55:56;97654.53;;;18.37;100.00
68226;BME280;55045;49.410;11.030;2022-09-13T10:59:16;97653.00;;;18.35;100.00
68226;BME280;55045;49.410;11.030;2022-09-13T11:02:48;97645.97;;;18.95;100.00
68226;BME280;55045;49.410;11.030;2022-09-13T11:06:01;97640.28;;;19.09;100.00
68226;BME280;55045;49.410;11.030;2022-09-13T11:09:11;97643.19;;;18.87;100.00
68226;BME280;55045;49.410;11.030;2022-09-13T11:12:18;97653.97;;;18.93;100.00
68226;BME280;55045;49.410;11.030;2022-09-13T11:15:35;97642.06;;;18.89;100.00
68226;BME280;55045;49.410;11.030;2022-09-13T11:18:52;97618.41;;;18.99;100.00
68226;BME280;55045;49.410;11.030;2022-09-13T11:22:13;97630.19;;;19.14;100.00
68226;BME280;55045;49.410;11.030;2022-09-13T11:25:30;97639.19;;;19.31;100.00
68226;BME280;55045;49.410;11.030;2022-09-13T11:28:38;97634.75;;;19.03;100.00
68226;BME280;55045;49.410;11.030;2022-09-13T11:31:53;97632.28;;;19.01;100.00
68226;BME280;55045;49.410;11.030;2022-09-13T11:35:26;97604.47;;;18.98;100.00
68226;BME280;55045;49.410;11.030;2022-09-13T11:38:35;97635.00;;;19.48;100.00
68226;BME280;55045;49.410;11.030;2022-09-13T11:41:51;97642.72;;;19.69;100.00
68226;BME280;55045;49.410;11.030;2022-09-13T11:45:22;97632.25;;;19.30;100.00
68226;BME280;55045;49.410;11.030;2022-09-13T11:48:40;97641.69;;;19.13;100.00
68226;BME280;55045;49.410;11.030;2022-09-13T11:51:58;97650.25;;;19.35;100.00
68226;BME280;55045;49.410;11.030;2022-09-13T11:55:13;97648.88;;;19.02;100.00
68226;BME280;55045;49.410;11.030;2022-09-13T11:58:25;97657.16;;;19.16;100.00
68226;BME280;55045;49.410;11.030;2022-09-13T12:01:36;97647.75;;;19.23;100.00
68226;BME280;55045;49.410;11.030;2022-09-13T12:04:46;97647.31;;;19.28;100.00
68226;BME280;55045;49.410;11.030;2022-09-13T12:08:15;97651.63;;;19.00;100.00
68226;BME280;55045;49.410;11.030;2022-09-13T12:11:24;97660.47;;;18.99;100.00
68226;BME280;55045;49.410;11.030;2022-09-13T12:14:36;97661.19;;;19.01;100.00
68226;BME280;55045;49.410;11.030;2022-09-13T12:17:46;97666.44;;;19.01;100.00
68226;BME280;55045;49.410;11.030;2022-09-13T12:20:53;97650.22;;;18.77;100.00
68226;BME280;55045;49.410;11.030;2022-09-13T12:24:02;97664.75;;;18.81;100.00
68226;BME280;55045;49.410;11.030;2022-09-13T12:27:11;97675.28;;;18.81;100.00
68226;BME280;55045;49.410;11.030;2022-09-13T12:30:19;97643.47;;;19.03;100.00
68226;BME280;55045;49.410;11.030;2022-09-13T12:33:22;97654.13;;;18.82;100.00
68226;BME280;55045;49.410;11.030;2022-09-13T12:36:49;97650.09;;;18.97;100.00
68226;BME280;55045;49.410;11.030;2022-09-13T12:40:18;97639.31;;;19.10;100.00
68226;BME280;55045;49.410;11.030;2022-09-13T12:44:11;97636.00;;;19.08;100.00
68226;BME280;55045;49.410;11.030;2022-09-13T12:51:05;97623.50;;;19.49;100.00
68226;BME280;55045;49.410;11.030;2022-09-13T12:54:30;97618.84;;;19.23;100.00
68226;BME280;55045;49.410;11.030;2022-09-13T12:57:42;97619.69;;;19.05;100.00
68226;BME280;55045;49.410;11.030;2022-09-13T13:01:04;97615.78;;;18.99;100.00
68226;BME280;55045;49.410;11.030;2022-09-13T13:04:15;97612.63;;;19.24;100.00
68226;BME280;55045;49.410;11.030;2022-09-13T13:07:33;97601.72;;;18.90;100.00
68226;BME280;55045;49.410;11.030;2022-09-13T13:10:37;97618.41;;;18.80;100.00
68226;BME280;55045;49.410;11.030;2022-09-13T13:13:43;97622.16;;;19.06;100.00
68226;BME280;55045;49.410;11.030;2022-09-13T13:16:47;97623.13;;;18.86;100.00
68226;BME280;55045;49.410;11.030;2022-09-13T13:19:50;97601.44;;;18.84;100.00
68226;BME280;55045;49.410;11.030;2022-09-13T13:23:03;97600.13;;;19.46;100.00
68226;BME280;55045;49.410;11.030;2022-09-13T13:26:09;97609.44;;;19.21;100.00
68226;BME280;55045;49.410;11.030;2022-09-13T13:29:16;97620.66;;;19.13;100.00
68226;BME280;55045;49.410;11.030;2022-09-13T13:32:20;97590.28;;;19.58;100.00
68226;BME280;55045;49.410;11.030;2022-09-13T13:35:28;97576.53;;;19.73;100.00
68226;BME280;55045;49.410;11.030;2022-09-13T13:38:46;97570.25;;;19.84;100.00
68226;BME280;55045;49.410;11.030;2022-09-13T13:41:52;97585.72;;;19.97;100.00
68226;BME280;55045;49.410;11.030;2022-09-13T13:45:19;97577.56;;;19.63;100.00
68226;BME280;55045;49.410;11.030;2022-09-13T13:48:35;97590.41;;;19.66;100.00
68226;BME280;55045;49.410;11.030;2022-09-13T13:51:39;97592.75;;;19.49;100.00
68226;BME280;55045;49.410;11.030;2022-09-13T13:54:59;97575.97;;;20.07;100.00
68226;BME280;55045;49.410;11.030;2022-09-13T13:58:11;97591.66;;;19.62;100.00
68226;BME280;55045;49.410;11.030;2022-09-13T14:01:21;97578.78;;;19.96;100.00
68226;BME280;55045;49.410;11.030;2022-09-13T14:04:42;97590.06;;;19.78;100.00
68226;BME280;55045;49.410;11.030;2022-09-13T14:11:33;97578.09;;;19.66;100.00
68226;BME280;55045;49.410;11.030;2022-09-13T14:14:54;97560.66;;;19.46;100.00
68226;BME280;55045;49.410;11.030;2022-09-13T14:18:35;97554.81;;;19.99;100.00
68226;BME280;55045;49.410;11.030;2022-09-13T14:21:40;97561.59;;;19.74;100.00
68226;BME280;55045;49.410;11.030;2022-09-13T14:24:44;97557.53;;;19.79;100.00
68226;BME280;55045;49.410;11.030;2022-09-13T14:28:07;97511.00;;;20.07;100.00
68226;BME280;55045;49.410;11.030;2022-09-13T14:31:17;97523.72;;;20.30;100.00
68226;BME280;55045;49.410;11.030;2022-09-13T14:34:25;97536.06;;;20.02;100.00
68226;BME280;55045;49.410;11.030;2022-09-13T14:37:31;97534.94;;;19.87;100.00
68226;BME280;55045;49.410;11.030;2022-09-13T14:40:35;97538.28;;;19.79;100.00
68226;BME280;55045;49.410;11.030;2022-09-13T14:43:41;97529.78;;;19.95;100.00
68226;BME280;55045;49.410;11.030;2022-09-13T14:46:48;97511.81;;;19.80;100.00
68226;BME280;55045;49.410;11.030;2022-09-13T14:49:59;97517.09;;;20.26;100.00
68226;BME280;55045;49.410;11.030;2022-09-13T14:53:06;97509.50;;;20.23;100.00
68226;BME280;55045;49.410;11.030;2022-09-13T14:56:14;97546.31;;;19.77;100.00
68226;BME280;55045;49.410;11.030;2022-09-13T14:59:25;97515.66;;;20.31;100.00
68226;BME280;55045;49.410;11.030;2022-09-13T15:02:35;97539.41;;;19.76;100.00
68226;BME280;55045;49.410;11.030;2022-09-13T15:05:39;97510.53;;;20.12;100.00
68226;BME280;55045;49.410;11.030;2022-09-13T15:08:44;97536.69;;;19.96;100.00
68226;BME280;55045;49.410;11.030;2022-09-13T15:11:57;97516.91;;;19.64;100.00
68226;BME280;55045;49.410;11.030;2022-09-13T15:18:31;97333.50;;;19.29;100.00
68226;BME280;55045;49.410;11.030;2022-09-13T15:21:38;97376.31;;;19.21;100.00
68226;BME280;55045;49.410;11.030;2022-09-13T15:24:44;97457.38;;;19.63;100.00
68226;BME280;55045;49.410;11.030;2022-09-13T15:27:48;97302.69;;;18.57;100.00
68226;BME280;55045;49.410;11.030;2022-09-13T15:34:21;97497.50;;;20.10;100.00
68226;BME280;55045;49.410;11.030;2022-09-13T15:37:34;97509.34;;;19.79;100.00
68226;BME280;55045;49.410;11.030;2022-09-13T15:40:41;97500.56;;;20.16;100.00
68226;BME280;55045;49.410;11.030;2022-09-13T15:43:47;97517.34;;;19.87;100.00
68226;BME280;55045;49.410;11.030;2022-09-13T15:46:51;97491.38;;;19.74;100.00
68226;BME280;55045;49.410;11.030;2022-09-13T15:49:57;97506.75;;;19.69;100.00
68226;BME280;55045;49.410;11.030;2022-09-13T15:53:01;97508.69;;;19.67;100.00
68226;BME280;55045;49.410;11.030;2022-09-13T15:56:05;97504.94;;;19.70;100.00
68226;BME280;55045;49.410;11.030;2022-09-13T15:59:12;97499.47;;;19.63;100.00
68226;BME280;55045;49.410;11.030;2022-09-13T16:02:18;97488.13;;;19.80;100.00
68226;BME280;55045;49.410;11.030;2022-09-13T16:05:23;97484.56;;;19.72;100.00
68226;BME280;55045;49.410;11.030;2022-09-13T16:08:26;97494.16;;;19.73;100.00
68226;BME280;55045;49.410;11.030;2022-09-13T16:11:29;97492.72;;;19.78;100.00
68226;BME280;55045;49.410;11.030;2022-09-13T16:14:33;97467.63;;;19.56;100.00
68226;BME280;55045;49.410;11.030;2022-09-13T16:17:36;97485.91;;;19.58;100.00
68226;BME280;55045;49.410;11.030;2022-09-13T16:20:41;97487.03;;;19.46;100.00
68226;BME280;55045;49.410;11.030;2022-09-13T16:23:44;97485.03;;;19.67;100.00
68226;BME280;55045;49.410;11.030;2022-09-13T16:26:47;97474.47;;;19.77;100.00
68226;BME280;55045;49.410;11.030;2022-09-13T16:29:51;97487.28;;;19.62;100.00
68226;BME280;55045;49.410;11.030;2022-09-13T16:32:54;97481.47;;;19.49;100.00
68226;BME280;55045;49.410;11.030;2022-09-13T16:35:58;97473.22;;;19.44;100.00
68226;BME280;55045;49.410;11.030;2022-09-13T16:39:03;97482.88;;;19.06;100.00